createdAt,value
2023-05-22T00:04:08.151Z,24.0
2023-05-22T00:09:14.366Z,23.0
2023-05-22T00:14:20.586Z,24.0
2023-05-22T00:19:26.824Z,24.0
2023-05-22T00:24:32.982Z,25.0
2023-05-22T00:29:39.196Z,26.0
2023-05-22T00:34:45.438Z,26.0
2023-05-22T00:39:51.622Z,27.0
2023-05-22T00:44:57.823Z,28.0
2023-05-22T00:50:04.047Z,28.0
2023-05-22T00:55:10.252Z,28.5
2023-05-22T01:00:16.470Z,29.0
2023-05-22T01:05:22.670Z,28.0
2023-05-22T01:10:28.869Z,28.5
2023-05-22T01:15:35.084Z,28.0
2023-05-22T01:20:41.611Z,28.5
2023-05-22T01:25:47.499Z,29.0
2023-05-22T01:30:53.697Z,29.0
2023-05-22T01:35:59.916Z,28.0
2023-05-22T01:41:06.137Z,29.0
2023-05-22T01:46:12.351Z,28.0
2023-05-22T01:51:18.525Z,28.0
2023-05-22T01:56:24.737Z,29.0
2023-05-22T02:01:31.023Z,28.0
2023-05-22T02:06:37.157Z,27.0
2023-05-22T02:11:43.363Z,26.5
2023-05-22T02:16:49.570Z,28.0
2023-05-22T02:21:55.774Z,27.5
2023-05-22T02:27:02.000Z,27.0
2023-05-22T02:32:08.211Z,28.0
2023-05-22T02:37:14.412Z,28.0
2023-05-22T02:42:20.628Z,28.0
2023-05-22T02:47:26.868Z,29.0
2023-05-22T02:52:33.052Z,28.0
2023-05-22T02:57:39.238Z,29.0
2023-05-22T03:02:45.541Z,29.0
2023-05-22T03:07:51.670Z,29.0
2023-05-22T03:12:57.863Z,28.0
2023-05-22T03:18:04.128Z,28.0
2023-05-22T03:23:10.278Z,29.0
2023-05-22T03:28:16.493Z,29.0
2023-05-22T03:33:22.756Z,30.0
2023-05-22T03:38:28.918Z,30.0
2023-05-22T03:43:35.121Z,31.0
2023-05-22T03:48:41.336Z,33.0
2023-05-22T03:53:47.566Z,33.0
2023-05-22T03:58:53.752Z,34.0
2023-05-22T04:03:59.960Z,40.0
2023-05-22T04:09:06.155Z,35.0
2023-05-22T04:14:12.375Z,66.5
2023-05-22T04:19:18.637Z,50.0
2023-05-22T04:24:24.783Z,48.0
2023-05-22T04:29:31.001Z,49.5
2023-05-22T04:34:37.208Z,39.0
2023-05-22T04:39:43.409Z,49.5
2023-05-22T04:44:49.612Z,33.0
2023-05-22T04:49:55.834Z,44.5
2023-05-22T04:55:03.202Z,43.0
2023-05-22T05:00:07.262Z,48.0
2023-05-22T05:05:13.474Z,34.5
2023-05-22T05:10:19.675Z,33.0
2023-05-22T05:15:25.880Z,32.0
2023-05-22T05:20:32.105Z,47.5
2023-05-22T05:25:37.318Z,32.0
2023-05-22T05:30:43.533Z,44.0
2023-05-22T05:35:49.738Z,54.5
2023-05-22T05:40:55.947Z,56.0
2023-05-22T05:46:02.276Z,48.5
2023-05-22T05:51:08.369Z,41.0
2023-05-22T05:56:14.580Z,49.5
2023-05-22T06:01:20.776Z,43.0
2023-05-22T06:06:26.984Z,47.0
2023-05-22T06:11:33.216Z,45.0
2023-05-22T06:16:39.443Z,42.0
2023-05-22T06:21:45.616Z,48.0
2023-05-22T06:26:51.825Z,49.0
2023-05-22T06:31:58.089Z,45.0
2023-05-22T06:37:04.245Z,59.0
2023-05-22T06:42:10.447Z,48.0
2023-05-22T06:47:16.657Z,56.0
2023-05-22T06:52:22.867Z,51.0
2023-05-22T06:57:29.167Z,51.5
2023-05-22T07:02:35.319Z,50.0
2023-05-22T07:07:41.495Z,50.0
2023-05-22T07:12:47.705Z,51.0
2023-05-22T07:17:53.944Z,51.0
2023-05-22T07:23:00.149Z,53.0
2023-05-22T07:28:06.314Z,54.0
2023-05-22T07:33:12.781Z,54.5
2023-05-22T07:38:18.741Z,56.0
2023-05-22T07:43:24.996Z,54.0
2023-05-22T07:48:31.177Z,54.5
2023-05-22T07:53:37.365Z,53.0
2023-05-22T07:58:43.579Z,54.0
2023-05-22T08:03:50.001Z,55.0
2023-05-22T08:08:55.987Z,54.0
2023-05-22T08:14:02.212Z,54.0
2023-05-22T08:19:08.509Z,53.0
2023-05-22T08:24:14.610Z,53.0
2023-05-22T08:29:20.819Z,52.0
2023-05-22T08:34:27.050Z,52.0
2023-05-22T08:39:33.244Z,50.0
2023-05-22T08:44:39.445Z,52.0
2023-05-22T08:49:45.649Z,45.5
2023-05-22T08:54:51.866Z,46.5
2023-05-22T08:59:58.077Z,47.0
2023-05-22T09:05:04.310Z,47.0
2023-05-22T09:10:10.493Z,44.0
2023-05-22T09:15:16.724Z,42.0
2023-05-22T09:20:23.005Z,51.0
2023-05-22T09:25:29.121Z,39.0
2023-05-22T09:30:35.343Z,38.0
2023-05-22T09:35:41.541Z,37.0
2023-05-22T09:40:47.753Z,36.0
2023-05-22T09:45:53.974Z,36.0
2023-05-22T09:51:00.270Z,36.5
2023-05-22T09:56:06.378Z,38.0
2023-05-22T10:01:12.609Z,35.0
2023-05-22T10:06:18.817Z,34.0
2023-05-22T10:11:25.012Z,36.0
2023-05-22T10:16:31.261Z,33.0
2023-05-22T10:21:37.443Z,33.0
2023-05-22T10:26:43.632Z,32.0
2023-05-22T10:31:49.849Z,30.0
2023-05-22T10:37:03.055Z,28.0
2023-05-22T10:42:02.277Z,29.0
2023-05-22T10:47:08.492Z,32.0
2023-05-22T10:52:14.713Z,29.0
2023-05-22T10:57:19.933Z,28.0
2023-05-22T11:02:26.259Z,28.0
2023-05-22T11:07:32.364Z,26.5
2023-05-22T11:12:38.584Z,28.0
2023-05-22T11:22:51.033Z,26.0
2023-05-22T11:27:57.245Z,27.0
2023-05-22T11:33:03.517Z,25.0
2023-05-22T11:38:09.676Z,21.0
2023-05-22T11:43:15.898Z,17.0
2023-05-22T11:48:22.333Z,18.5
2023-05-22T11:53:28.546Z,19.0
2023-05-22T11:58:34.785Z,19.0
2023-05-22T12:03:41.064Z,22.0
2023-05-22T12:08:47.257Z,23.0
2023-05-22T12:13:53.410Z,20.0
2023-05-22T12:18:59.694Z,24.0
2023-05-22T12:24:05.896Z,25.0
2023-05-22T12:29:12.077Z,24.0
2023-05-22T12:34:18.306Z,23.0
2023-05-22T12:39:24.511Z,23.0
2023-05-22T12:44:30.767Z,23.0
2023-05-22T12:49:37.000Z,23.0
2023-05-22T12:54:43.206Z,24.0
2023-05-22T12:59:49.399Z,23.0
2023-05-22T13:04:55.656Z,24.0
2023-05-22T13:10:01.854Z,24.0
2023-05-22T13:15:08.058Z,25.0
2023-05-22T13:20:14.289Z,25.0
2023-05-22T13:25:20.506Z,24.0
2023-05-22T13:30:26.720Z,24.0
2023-05-22T13:35:32.932Z,24.5
2023-05-22T13:40:39.172Z,23.5
2023-05-22T13:45:45.412Z,25.0
2023-05-22T13:50:51.628Z,25.0
2023-05-22T13:55:57.847Z,23.0
2023-05-22T14:01:04.094Z,22.0
2023-05-22T14:06:10.279Z,23.0
2023-05-22T14:11:16.511Z,22.0
2023-05-22T14:16:22.781Z,21.0
2023-05-22T14:21:28.921Z,21.0
2023-05-22T14:26:35.150Z,21.0
2023-05-22T14:31:41.360Z,19.0
2023-05-22T14:36:47.591Z,20.0
2023-05-22T14:41:53.826Z,22.5
2023-05-22T14:47:00.030Z,24.0
2023-05-22T14:52:06.262Z,26.0
2023-05-22T14:57:12.482Z,27.0
2023-05-22T15:02:18.680Z,29.0
2023-05-22T15:07:32.370Z,30.0
2023-05-22T15:12:31.138Z,33.0
2023-05-22T15:17:37.535Z,30.5
2023-05-22T15:22:43.581Z,28.0
2023-05-22T15:27:49.785Z,12.0
2023-05-22T15:32:56.004Z,11.0
2023-05-22T15:38:02.226Z,12.0
2023-05-22T15:43:08.436Z,13.0
2023-05-22T15:48:14.686Z,12.5
2023-05-22T15:53:20.853Z,13.0
2023-05-22T15:58:27.064Z,13.0
2023-05-22T16:03:33.441Z,14.0
2023-05-22T16:08:39.503Z,15.0
2023-05-22T16:13:45.697Z,15.0
2023-05-22T16:18:51.941Z,16.0
2023-05-22T16:23:58.124Z,17.0
2023-05-22T16:29:03.345Z,18.0
2023-05-22T16:34:09.546Z,18.0
2023-05-22T16:39:15.771Z,12.0
2023-05-22T16:44:21.968Z,11.0
2023-05-22T16:49:28.177Z,11.0
2023-05-22T16:54:34.377Z,10.0
2023-05-22T16:59:40.594Z,10.0
2023-05-22T17:04:46.799Z,10.0
2023-05-22T17:09:53.023Z,10.0
2023-05-22T17:14:59.228Z,9.0
2023-05-22T17:20:05.426Z,9.0
2023-05-22T17:25:11.639Z,8.0
2023-05-22T17:30:17.853Z,6.0
2023-05-22T17:35:24.083Z,5.0
2023-05-22T17:40:43.271Z,4.0
2023-05-22T17:45:36.477Z,4.0
2023-05-22T17:50:42.886Z,4.0
2023-05-22T17:55:48.891Z,3.0
2023-05-22T18:00:55.105Z,4.0
2023-05-22T18:06:01.325Z,4.0
2023-05-22T18:11:07.522Z,4.0
2023-05-22T18:16:13.817Z,5.0
2023-05-22T18:21:19.941Z,4.0
2023-05-22T18:26:26.140Z,4.0
2023-05-22T18:31:32.379Z,4.0
2023-05-22T18:36:38.566Z,4.0
2023-05-22T18:41:44.771Z,5.0
2023-05-22T18:46:51.088Z,4.0
2023-05-22T18:51:57.214Z,4.0
2023-05-22T18:57:03.404Z,4.0
2023-05-22T19:02:09.610Z,4.0
2023-05-22T19:07:15.815Z,5.0
2023-05-22T19:12:22.031Z,5.0
2023-05-22T19:17:28.299Z,6.0
2023-05-22T19:27:40.663Z,5.0
2023-05-22T19:32:46.948Z,6.0
2023-05-22T19:37:53.089Z,6.0
2023-05-22T19:42:59.284Z,7.0
2023-05-22T19:48:05.585Z,6.0
2023-05-22T19:53:11.709Z,6.0
2023-05-22T19:58:17.911Z,6.0
2023-05-22T20:03:24.250Z,6.0
2023-05-22T20:08:30.325Z,6.0
2023-05-22T20:13:36.566Z,6.0
2023-05-22T20:18:42.754Z,6.0
2023-05-22T20:23:48.967Z,6.0
2023-05-22T20:28:55.163Z,7.0
2023-05-22T20:34:01.378Z,7.0
2023-05-22T20:39:07.582Z,7.0
2023-05-22T20:44:13.788Z,7.0
2023-05-22T20:49:19.988Z,7.0
2023-05-22T20:54:26.201Z,8.0
2023-05-22T20:59:32.421Z,8.0
2023-05-22T21:04:38.618Z,8.0
2023-05-22T21:09:44.826Z,8.0
2023-05-22T21:14:51.037Z,7.0
2023-05-22T21:19:57.252Z,7.0
2023-05-22T21:25:03.451Z,8.0
2023-05-22T21:30:09.663Z,8.0
2023-05-22T21:35:15.874Z,9.0
2023-05-22T21:40:22.100Z,9.0
2023-05-22T21:45:28.295Z,10.0
2023-05-22T21:50:34.504Z,11.0
2023-05-22T21:55:40.704Z,14.0
2023-05-22T22:00:45.921Z,14.5
2023-05-22T22:05:52.139Z,15.0
2023-05-22T22:10:58.373Z,15.0
2023-05-22T22:16:04.577Z,16.0
2023-05-22T22:21:10.753Z,16.0
2023-05-22T22:26:16.958Z,14.0
2023-05-22T22:31:22.238Z,13.0
2023-05-22T22:36:28.420Z,10.0
2023-05-22T22:41:34.617Z,7.0
2023-05-22T22:46:40.951Z,6.0
2023-05-22T22:51:47.045Z,6.0
2023-05-22T22:56:53.246Z,6.0
2023-05-22T23:01:59.467Z,6.0
2023-05-22T23:07:05.671Z,6.0
2023-05-22T23:12:11.872Z,7.0
2023-05-22T23:17:18.071Z,7.0
2023-05-22T23:22:24.285Z,7.0
2023-05-22T23:27:30.489Z,7.0
2023-05-22T23:32:36.744Z,7.0
2023-05-22T23:37:42.906Z,7.0
2023-05-22T23:42:49.290Z,8.0
2023-05-22T23:47:55.359Z,7.0
2023-05-22T23:53:01.536Z,8.0
2023-05-22T23:58:07.732Z,8.0
